sensor_id;sensor_type;location;lat;lon;timestamp;pressure;altitude;pressure_sealevel;temperature;humidity
44926;BME280;30662;51.210;7.656;2023-03-03T00:01:24;148868.13;;;0.18;100.00
44926;BME280;30662;51.210;7.656;2023-03-03T00:03:53;148843.03;;;0.08;100.00
44926;BME280;30662;51.210;7.656;2023-03-03T00:06:19;148848.06;;;0.10;100.00
44926;BME280;30662;51.210;7.656;2023-03-03T00:08:46;148851.81;;;0.12;100.00
44926;BME280;30662;51.210;7.656;2023-03-03T00:11:12;148866.88;;;0.18;100.00
44926;BME280;30662;51.210;7.656;2023-03-03T00:13:53;148843.03;;;0.08;100.00
44926;BME280;30662;51.210;7.656;2023-03-03T00:16:27;148832.97;;;0.04;100.00
44926;BME280;30662;51.210;7.656;2023-03-03T00:18:54;148855.56;;;0.13;100.00
44926;BME280;30662;51.210;7.656;2023-03-03T00:21:26;148863.13;;;0.16;100.00
44926;BME280;30662;51.210;7.656;2023-03-03T00:24:19;148873.16;;;0.20;100.00
44926;BME280;30662;51.210;7.656;2023-03-03T00:26:45;148844.31;;;0.09;100.00
44926;BME280;30662;51.210;7.656;2023-03-03T00:29:40;148838.00;;;0.06;100.00
44926;BME280;30662;51.210;7.656;2023-03-03T00:34:40;148839.25;;;0.07;100.00
44926;BME280;30662;51.210;7.656;2023-03-03T00:37:26;148863.13;;;0.16;100.00
44926;BME280;30662;51.210;7.656;2023-03-03T00:39:53;148816.66;;;-0.03;100.00
44926;BME280;30662;51.210;7.656;2023-03-03T00:42:23;148822.97;;;0.00;100.00
44926;BME280;30662;51.210;7.656;2023-03-03T00:44:58;148854.31;;;0.13;100.00
44926;BME280;30662;51.210;7.656;2023-03-03T00:49:52;148866.88;;;0.18;100.00
44926;BME280;30662;51.210;7.656;2023-03-03T00:52:19;148848.06;;;0.10;100.00
44926;BME280;30662;51.210;7.656;2023-03-03T00:54:46;148800.31;;;-0.09;100.00
44926;BME280;30662;51.210;7.656;2023-03-03T00:57:12;148784.00;;;-0.16;100.00
44926;BME280;30662;51.210;7.656;2023-03-03T00:59:38;148774.00;;;-0.20;100.00
44926;BME280;30662;51.210;7.656;2023-03-03T01:02:04;148802.84;;;-0.08;100.00
44926;BME280;30662;51.210;7.656;2023-03-03T01:04:30;148789.06;;;-0.14;100.00
44926;BME280;30662;51.210;7.656;2023-03-03T01:06:56;148786.50;;;-0.15;100.00
44926;BME280;30662;51.210;7.656;2023-03-03T01:09:22;148776.50;;;-0.19;100.00
44926;BME280;30662;51.210;7.656;2023-03-03T01:11:49;148766.44;;;-0.23;100.00
44926;BME280;30662;51.210;7.656;2023-03-03T01:14:15;148738.84;;;-0.34;100.00
44926;BME280;30662;51.210;7.656;2023-03-03T01:16:41;148786.50;;;-0.15;100.00
44926;BME280;30662;51.210;7.656;2023-03-03T01:19:07;148809.13;;;-0.06;100.00
44926;BME280;30662;51.210;7.656;2023-03-03T01:21:33;148817.91;;;-0.02;100.00
44926;BME280;30662;51.210;7.656;2023-03-03T01:23:59;148794.06;;;-0.12;100.00
44926;BME280;30662;51.210;7.656;2023-03-03T01:26:25;148766.44;;;-0.23;100.00
44926;BME280;30662;51.210;7.656;2023-03-03T01:28:52;148777.75;;;-0.18;100.00
44926;BME280;30662;51.210;7.656;2023-03-03T01:31:17;148771.47;;;-0.21;100.00
44926;BME280;30662;51.210;7.656;2023-03-03T01:33:43;148735.09;;;-0.36;100.00
44926;BME280;30662;51.210;7.656;2023-03-03T01:36:09;148732.53;;;-0.37;100.00
44926;BME280;30662;51.210;7.656;2023-03-03T01:38:36;148743.84;;;-0.32;100.00
44926;BME280;30662;51.210;7.656;2023-03-03T01:41:02;148770.22;;;-0.21;100.00
44926;BME280;30662;51.210;7.656;2023-03-03T01:43:29;148750.09;;;-0.30;100.00
44926;BME280;30662;51.210;7.656;2023-03-03T01:48:30;148761.41;;;-0.25;100.00
44926;BME280;30662;51.210;7.656;2023-03-03T01:51:01;148776.50;;;-0.19;100.00
44926;BME280;30662;51.210;7.656;2023-03-03T01:53:38;148746.34;;;-0.31;100.00
44926;BME280;30662;51.210;7.656;2023-03-03T01:56:07;148725.03;;;-0.40;100.00
44926;BME280;30662;51.210;7.656;2023-03-03T01:58:36;148735.09;;;-0.36;100.00
44926;BME280;30662;51.210;7.656;2023-03-03T02:01:11;148720.00;;;-0.42;100.00
44926;BME280;30662;51.210;7.656;2023-03-03T02:03:40;148696.13;;;-0.51;100.00
44926;BME280;30662;51.210;7.656;2023-03-03T02:06:09;148708.69;;;-0.46;100.00
44926;BME280;30662;51.210;7.656;2023-03-03T02:09:02;148699.94;;;-0.50;100.00
44926;BME280;30662;51.210;7.656;2023-03-03T02:11:32;148662.28;;;-0.65;100.00
44926;BME280;30662;51.210;7.656;2023-03-03T02:14:00;148659.75;;;-0.66;100.00
44926;BME280;30662;51.210;7.656;2023-03-03T02:16:26;148682.38;;;-0.57;100.00
44926;BME280;30662;51.210;7.656;2023-03-03T02:18:52;148682.38;;;-0.57;100.00
44926;BME280;30662;51.210;7.656;2023-03-03T02:21:20;148701.19;;;-0.49;100.00
44926;BME280;30662;51.210;7.656;2023-03-03T02:23:52;148682.38;;;-0.57;100.00
44926;BME280;30662;51.210;7.656;2023-03-03T02:26:20;148687.38;;;-0.55;100.00
44926;BME280;30662;51.210;7.656;2023-03-03T02:28:47;148693.63;;;-0.52;100.00
44926;BME280;30662;51.210;7.656;2023-03-03T02:31:16;148656.00;;;-0.68;100.00
44926;BME280;30662;51.210;7.656;2023-03-03T02:33:45;148642.19;;;-0.73;100.00
44926;BME280;30662;51.210;7.656;2023-03-03T02:36:26;148664.81;;;-0.64;100.00
44926;BME280;30662;51.210;7.656;2023-03-03T02:41:47;148666.03;;;-0.64;100.00
44926;BME280;30662;51.210;7.656;2023-03-03T02:44:21;148658.50;;;-0.67;100.00
44926;BME280;30662;51.210;7.656;2023-03-03T02:46:48;148656.00;;;-0.68;100.00
44926;BME280;30662;51.210;7.656;2023-03-03T02:49:17;148678.56;;;-0.59;100.00
44926;BME280;30662;51.210;7.656;2023-03-03T02:51:43;148682.38;;;-0.57;100.00
44926;BME280;30662;51.210;7.656;2023-03-03T02:54:11;148679.81;;;-0.58;100.00
44926;BME280;30662;51.210;7.656;2023-03-03T02:56:37;148682.38;;;-0.57;100.00
44926;BME280;30662;51.210;7.656;2023-03-03T02:59:04;148689.88;;;-0.54;100.00
44926;BME280;30662;51.210;7.656;2023-03-03T03:01:30;148704.94;;;-0.48;100.00
44926;BME280;30662;51.210;7.656;2023-03-03T03:04:05;148701.19;;;-0.49;100.00
44926;BME280;30662;51.210;7.656;2023-03-03T03:06:34;148722.50;;;-0.41;100.00
44926;BME280;30662;51.210;7.656;2023-03-03T03:09:00;148679.81;;;-0.58;100.00
44926;BME280;30662;51.210;7.656;2023-03-03T03:11:26;148701.19;;;-0.49;100.00
44926;BME280;30662;51.210;7.656;2023-03-03T03:13:51;148677.31;;;-0.59;100.00
44926;BME280;30662;51.210;7.656;2023-03-03T03:16:18;148644.72;;;-0.72;100.00
44926;BME280;30662;51.210;7.656;2023-03-03T03:18:44;148638.41;;;-0.75;100.00
44926;BME280;30662;51.210;7.656;2023-03-03T03:21:11;148673.56;;;-0.61;100.00
44926;BME280;30662;51.210;7.656;2023-03-03T03:23:38;148696.13;;;-0.51;100.00
44926;BME280;30662;51.210;7.656;2023-03-03T03:26:05;148674.81;;;-0.60;100.00
44926;BME280;30662;51.210;7.656;2023-03-03T03:28:32;148674.81;;;-0.60;100.00
44926;BME280;30662;51.210;7.656;2023-03-03T03:30:58;148664.81;;;-0.64;100.00
44926;BME280;30662;51.210;7.656;2023-03-03T03:33:24;148662.28;;;-0.65;100.00
44926;BME280;30662;51.210;7.656;2023-03-03T03:35:50;148644.72;;;-0.72;100.00
44926;BME280;30662;51.210;7.656;2023-03-03T03:38:16;148684.88;;;-0.56;100.00
44926;BME280;30662;51.210;7.656;2023-03-03T03:40:42;148689.88;;;-0.54;100.00
44926;BME280;30662;51.210;7.656;2023-03-03T03:43:08;148657.25;;;-0.67;100.00
44926;BME280;30662;51.210;7.656;2023-03-03T03:45:34;148629.66;;;-0.78;100.00
44926;BME280;30662;51.210;7.656;2023-03-03T03:48:00;148620.84;;;-0.82;100.00
44926;BME280;30662;51.210;7.656;2023-03-03T03:50:26;148618.34;;;-0.83;100.00
44926;BME280;30662;51.210;7.656;2023-03-03T03:52:52;148684.88;;;-0.56;100.00
44926;BME280;30662;51.210;7.656;2023-03-03T03:55:17;148693.63;;;-0.52;100.00
44926;BME280;30662;51.210;7.656;2023-03-03T03:57:43;148668.56;;;-0.63;100.00
44926;BME280;30662;51.210;7.656;2023-03-03T04:00:10;148692.38;;;-0.53;100.00
44926;BME280;30662;51.210;7.656;2023-03-03T04:02:36;148716.25;;;-0.43;100.00
44926;BME280;30662;51.210;7.656;2023-03-03T04:05:03;148703.69;;;-0.48;100.00
44926;BME280;30662;51.210;7.656;2023-03-03T04:07:29;148671.06;;;-0.62;100.00
44926;BME280;30662;51.210;7.656;2023-03-03T04:09:55;148682.38;;;-0.57;100.00
44926;BME280;30662;51.210;7.656;2023-03-03T04:12:21;148703.69;;;-0.48;100.00
44926;BME280;30662;51.210;7.656;2023-03-03T04:14:46;148707.44;;;-0.47;100.00
44926;BME280;30662;51.210;7.656;2023-03-03T04:17:21;148654.72;;;-0.68;100.00
44926;BME280;30662;51.210;7.656;2023-03-03T04:19:47;148683.63;;;-0.57;100.00
44926;BME280;30662;51.210;7.656;2023-03-03T04:22:13;148662.28;;;-0.65;100.00
44926;BME280;30662;51.210;7.656;2023-03-03T04:24:40;148614.59;;;-0.85;100.00
44926;BME280;30662;51.210;7.656;2023-03-03T04:27:06;148634.66;;;-0.76;100.00
44926;BME280;30662;51.210;7.656;2023-03-03T04:29:34;148657.25;;;-0.67;100.00
44926;BME280;30662;51.210;7.656;2023-03-03T04:32:00;148653.50;;;-0.69;100.00
44926;BME280;30662;51.210;7.656;2023-03-03T04:34:26;148649.72;;;-0.70;100.00
44926;BME280;30662;51.210;7.656;2023-03-03T04:36:52;148594.53;;;-0.93;100.00
44926;BME280;30662;51.210;7.656;2023-03-03T04:39:18;148615.84;;;-0.84;100.00
44926;BME280;30662;51.210;7.656;2023-03-03T04:41:44;148630.91;;;-0.78;100.00
44926;BME280;30662;51.210;7.656;2023-03-03T04:44:09;148637.16;;;-0.75;100.00
44926;BME280;30662;51.210;7.656;2023-03-03T04:46:35;148649.72;;;-0.70;100.00
44926;BME280;30662;51.210;7.656;2023-03-03T04:49:01;148613.34;;;-0.85;100.00
44926;BME280;30662;51.210;7.656;2023-03-03T04:51:28;148605.78;;;-0.88;100.00
44926;BME280;30662;51.210;7.656;2023-03-03T04:53:54;148620.84;;;-0.82;100.00
44926;BME280;30662;51.210;7.656;2023-03-03T04:56:20;148607.03;;;-0.88;100.00
44926;BME280;30662;51.210;7.656;2023-03-03T04:58:46;148609.59;;;-0.87;100.00
44926;BME280;30662;51.210;7.656;2023-03-03T05:01:12;148613.34;;;-0.85;100.00
44926;BME280;30662;51.210;7.656;2023-03-03T05:03:39;148607.03;;;-0.88;100.00
44926;BME280;30662;51.210;7.656;2023-03-03T05:06:06;148593.28;;;-0.93;100.00
44926;BME280;30662;51.210;7.656;2023-03-03T05:08:32;148604.53;;;-0.89;100.00
44926;BME280;30662;51.210;7.656;2023-03-03T05:10:58;148588.22;;;-0.95;100.00
44926;BME280;30662;51.210;7.656;2023-03-03T05:13:27;148585.72;;;-0.96;100.00
44926;BME280;30662;51.210;7.656;2023-03-03T05:15:54;148561.91;;;-1.06;100.00
44926;BME280;30662;51.210;7.656;2023-03-03T05:18:24;148524.28;;;-1.21;100.00
44926;BME280;30662;51.210;7.656;2023-03-03T05:20:51;148540.59;;;-1.15;100.00
44926;BME280;30662;51.210;7.656;2023-03-03T05:23:17;148592.03;;;-0.94;100.00
44926;BME280;30662;51.210;7.656;2023-03-03T05:25:43;148571.91;;;-1.02;100.00
44926;BME280;30662;51.210;7.656;2023-03-03T05:28:11;148558.16;;;-1.07;100.00
44926;BME280;30662;51.210;7.656;2023-03-03T05:30:37;148559.41;;;-1.07;100.00
44926;BME280;30662;51.210;7.656;2023-03-03T05:33:09;148575.72;;;-1.00;100.00
44926;BME280;30662;51.210;7.656;2023-03-03T05:35:37;148564.41;;;-1.05;100.00
44926;BME280;30662;51.210;7.656;2023-03-03T05:38:03;148589.47;;;-0.95;100.00
44926;BME280;30662;51.210;7.656;2023-03-03T05:40:30;148584.47;;;-0.97;100.00
44926;BME280;30662;51.210;7.656;2023-03-03T05:42:56;148589.47;;;-0.95;100.00
44926;BME280;30662;51.210;7.656;2023-03-03T05:45:23;148614.59;;;-0.85;100.00
44926;BME280;30662;51.210;7.656;2023-03-03T05:47:50;148619.59;;;-0.82;100.00
44926;BME280;30662;51.210;7.656;2023-03-03T05:50:17;148607.03;;;-0.88;100.00
44926;BME280;30662;51.210;7.656;2023-03-03T05:52:43;148602.03;;;-0.90;100.00
44926;BME280;30662;51.210;7.656;2023-03-03T05:55:11;148612.09;;;-0.86;100.00
44926;BME280;30662;51.210;7.656;2023-03-03T05:57:37;148574.47;;;-1.01;100.00
44926;BME280;30662;51.210;7.656;2023-03-03T06:00:05;148569.41;;;-1.03;100.00
44926;BME280;30662;51.210;7.656;2023-03-03T06:02:31;148570.66;;;-1.02;100.00
44926;BME280;30662;51.210;7.656;2023-03-03T06:04:57;148563.16;;;-1.05;100.00
44926;BME280;30662;51.210;7.656;2023-03-03T06:07:23;148556.91;;;-1.08;100.00
44926;BME280;30662;51.210;7.656;2023-03-03T06:09:49;148526.78;;;-1.20;100.00
44926;BME280;30662;51.210;7.656;2023-03-03T06:12:15;148576.97;;;-1.00;100.00
44926;BME280;30662;51.210;7.656;2023-03-03T06:14:41;148564.41;;;-1.05;100.00
44926;BME280;30662;51.210;7.656;2023-03-03T06:17:07;148558.16;;;-1.07;100.00
44926;BME280;30662;51.210;7.656;2023-03-03T06:19:33;148559.41;;;-1.07;100.00
44926;BME280;30662;51.210;7.656;2023-03-03T06:21:59;148546.84;;;-1.12;100.00
44926;BME280;30662;51.210;7.656;2023-03-03T06:24:26;148555.66;;;-1.08;100.00
44926;BME280;30662;51.210;7.656;2023-03-03T06:26:56;148549.34;;;-1.11;100.00
44926;BME280;30662;51.210;7.656;2023-03-03T06:29:22;148533.03;;;-1.18;100.00
44926;BME280;30662;51.210;7.656;2023-03-03T06:31:47;148570.66;;;-1.02;100.00
44926;BME280;30662;51.210;7.656;2023-03-03T06:34:13;148502.97;;;-1.30;100.00
44926;BME280;30662;51.210;7.656;2023-03-03T06:36:39;148553.09;;;-1.09;100.00
44926;BME280;30662;51.210;7.656;2023-03-03T06:39:05;148614.59;;;-0.85;100.00
44926;BME280;30662;51.210;7.656;2023-03-03T06:41:31;148607.03;;;-0.88;100.00
44926;BME280;30662;51.210;7.656;2023-03-03T06:43:57;148569.41;;;-1.03;100.00
44926;BME280;30662;51.210;7.656;2023-03-03T06:46:25;148579.47;;;-0.99;100.00
44926;BME280;30662;51.210;7.656;2023-03-03T06:48:52;148623.34;;;-0.81;100.00
44926;BME280;30662;51.210;7.656;2023-03-03T06:51:39;148620.84;;;-0.82;100.00
44926;BME280;30662;51.210;7.656;2023-03-03T06:54:16;148566.91;;;-1.04;100.00
44926;BME280;30662;51.210;7.656;2023-03-03T06:56:44;148561.91;;;-1.06;100.00
44926;BME280;30662;51.210;7.656;2023-03-03T06:59:13;148618.34;;;-0.83;100.00
44926;BME280;30662;51.210;7.656;2023-03-03T07:01:40;148592.03;;;-0.94;100.00
44926;BME280;30662;51.210;7.656;2023-03-03T07:06:41;148615.84;;;-0.84;100.00
44926;BME280;30662;51.210;7.656;2023-03-03T07:09:33;148633.41;;;-0.77;100.00
44926;BME280;30662;51.210;7.656;2023-03-03T07:12:09;148605.78;;;-0.88;100.00
44926;BME280;30662;51.210;7.656;2023-03-03T07:14:46;148629.66;;;-0.78;100.00
44926;BME280;30662;51.210;7.656;2023-03-03T07:17:21;148614.59;;;-0.85;100.00
44926;BME280;30662;51.210;7.656;2023-03-03T07:19:48;148603.28;;;-0.89;100.00
44926;BME280;30662;51.210;7.656;2023-03-03T07:22:16;148604.53;;;-0.89;100.00
44926;BME280;30662;51.210;7.656;2023-03-03T07:24:48;148603.28;;;-0.89;100.00
44926;BME280;30662;51.210;7.656;2023-03-03T07:29:48;148594.53;;;-0.93;100.00
44926;BME280;30662;51.210;7.656;2023-03-03T07:35:42;148645.97;;;-0.72;100.00
44926;BME280;30662;51.210;7.656;2023-03-03T07:38:39;148657.25;;;-0.67;100.00
44926;BME280;30662;51.210;7.656;2023-03-03T07:41:18;148632.16;;;-0.77;100.00
44926;BME280;30662;51.210;7.656;2023-03-03T07:43:52;148678.56;;;-0.59;100.00
44926;BME280;30662;51.210;7.656;2023-03-03T07:46:33;148658.50;;;-0.67;100.00
44926;BME280;30662;51.210;7.656;2023-03-03T07:51:46;148637.16;;;-0.75;100.00
44926;BME280;30662;51.210;7.656;2023-03-03T07:57:24;148713.72;;;-0.44;100.00
44926;BME280;30662;51.210;7.656;2023-03-03T08:07:57;148657.25;;;-0.67;100.00
44926;BME280;30662;51.210;7.656;2023-03-03T08:15:41;148635.91;;;-0.76;100.00
44926;BME280;30662;51.210;7.656;2023-03-03T08:18:33;148619.59;;;-0.82;100.00
44926;BME280;30662;51.210;7.656;2023-03-03T08:21:21;148595.78;;;-0.92;100.00
44926;BME280;30662;51.210;7.656;2023-03-03T08:23:47;148612.09;;;-0.86;100.00
44926;BME280;30662;51.210;7.656;2023-03-03T08:26:21;148605.78;;;-0.88;100.00
44926;BME280;30662;51.210;7.656;2023-03-03T08:28:47;148653.50;;;-0.69;100.00
44926;BME280;30662;51.210;7.656;2023-03-03T08:31:14;148654.72;;;-0.68;100.00
44926;BME280;30662;51.210;7.656;2023-03-03T08:33:53;148602.03;;;-0.90;100.00
44926;BME280;30662;51.210;7.656;2023-03-03T08:36:19;148624.59;;;-0.80;100.00
44926;BME280;30662;51.210;7.656;2023-03-03T08:38:45;148648.47;;;-0.71;100.00
44926;BME280;30662;51.210;7.656;2023-03-03T08:41:10;148658.50;;;-0.67;100.00
44926;BME280;30662;51.210;7.656;2023-03-03T08:43:36;148684.88;;;-0.56;100.00
44926;BME280;30662;51.210;7.656;2023-03-03T08:46:05;148679.81;;;-0.58;100.00
44926;BME280;30662;51.210;7.656;2023-03-03T08:48:32;148712.44;;;-0.45;100.00
44926;BME280;30662;51.210;7.656;2023-03-03T08:50:59;148717.50;;;-0.43;100.00
44926;BME280;30662;51.210;7.656;2023-03-03T08:53:25;148698.69;;;-0.50;100.00
44926;BME280;30662;51.210;7.656;2023-03-03T08:55:52;148728.78;;;-0.38;100.00
44926;BME280;30662;51.210;7.656;2023-03-03T08:58:19;148779.00;;;-0.18;100.00
44926;BME280;30662;51.210;7.656;2023-03-03T09:00:50;148806.63;;;-0.07;100.00
44926;BME280;30662;51.210;7.656;2023-03-03T09:03:17;148780.25;;;-0.17;100.00
44926;BME280;30662;51.210;7.656;2023-03-03T09:05:43;148792.81;;;-0.12;100.00
44926;BME280;30662;51.210;7.656;2023-03-03T09:08:10;148786.50;;;-0.15;100.00
44926;BME280;30662;51.210;7.656;2023-03-03T09:10:36;148704.94;;;-0.48;100.00
44926;BME280;30662;51.210;7.656;2023-03-03T09:13:09;148722.50;;;-0.41;100.00
44926;BME280;30662;51.210;7.656;2023-03-03T09:15:37;148755.16;;;-0.28;100.00
44926;BME280;30662;51.210;7.656;2023-03-03T09:18:20;148732.53;;;-0.37;100.00
44926;BME280;30662;51.210;7.656;2023-03-03T09:20:51;148748.84;;;-0.30;100.00
44926;BME280;30662;51.210;7.656;2023-03-03T09:23:24;148752.66;;;-0.29;100.00
44926;BME280;30662;51.210;7.656;2023-03-03T09:25:52;148738.84;;;-0.34;100.00
44926;BME280;30662;51.210;7.656;2023-03-03T09:28:24;148728.78;;;-0.38;100.00
44926;BME280;30662;51.210;7.656;2023-03-03T09:30:52;148681.13;;;-0.58;100.00
44926;BME280;30662;51.210;7.656;2023-03-03T09:35:49;148727.53;;;-0.39;100.00
44926;BME280;30662;51.210;7.656;2023-03-03T09:38:26;148716.25;;;-0.43;100.00
44926;BME280;30662;51.210;7.656;2023-03-03T09:46:22;148757.66;;;-0.26;100.00
44926;BME280;30662;51.210;7.656;2023-03-03T09:54:39;148817.91;;;-0.02;100.00
44926;BME280;30662;51.210;7.656;2023-03-03T10:02:54;148832.97;;;0.04;100.00
44926;BME280;30662;51.210;7.656;2023-03-03T10:05:36;148859.38;;;0.15;100.00
44926;BME280;30662;51.210;7.656;2023-03-03T10:08:21;148913.38;;;0.37;100.00
44926;BME280;30662;51.210;7.656;2023-03-03T10:13:57;148942.22;;;0.48;100.00
44926;BME280;30662;51.210;7.656;2023-03-03T10:16:34;148875.66;;;0.21;100.00
44926;BME280;30662;51.210;7.656;2023-03-03T10:19:28;148871.91;;;0.20;100.00
44926;BME280;30662;51.210;7.656;2023-03-03T10:22:03;148880.72;;;0.23;100.00
44926;BME280;30662;51.210;7.656;2023-03-03T10:28:18;148968.63;;;0.59;100.00
44926;BME280;30662;51.210;7.656;2023-03-03T10:31:20;148986.22;;;0.66;100.00
44926;BME280;30662;51.210;7.656;2023-03-03T10:39:41;149010.06;;;0.76;100.00
44926;BME280;30662;51.210;7.656;2023-03-03T10:45:24;149020.16;;;0.80;100.00
44926;BME280;30662;51.210;7.656;2023-03-03T10:54:06;149013.84;;;0.77;100.00
44926;BME280;30662;51.210;7.656;2023-03-03T11:05:04;149041.50;;;0.89;100.00
44926;BME280;30662;51.210;7.656;2023-03-03T11:07:49;149119.41;;;1.20;100.00
44926;BME280;30662;51.210;7.656;2023-03-03T11:24:05;149248.88;;;1.73;100.00
44926;BME280;30662;51.210;7.656;2023-03-03T11:26:54;149235.06;;;1.67;100.00
44926;BME280;30662;51.210;7.656;2023-03-03T11:32:13;149159.59;;;1.36;100.00
44926;BME280;30662;51.210;7.656;2023-03-03T11:37:34;149157.09;;;1.35;100.00
44926;BME280;30662;51.210;7.656;2023-03-03T11:41:00;149242.59;;;1.70;100.00
44926;BME280;30662;51.210;7.656;2023-03-03T11:43:31;149343.22;;;2.11;100.00
44926;BME280;30662;51.210;7.656;2023-03-03T11:46:07;149397.31;;;2.33;100.00
44926;BME280;30662;51.210;7.656;2023-03-03T11:48:45;149448.88;;;2.54;100.00
44926;BME280;30662;51.210;7.656;2023-03-03T11:51:19;149599.88;;;3.15;100.00
44926;BME280;30662;51.210;7.656;2023-03-03T11:54:04;149659.03;;;3.39;100.00
44926;BME280;30662;51.210;7.656;2023-03-03T11:56:42;149615.00;;;3.21;100.00
44926;BME280;30662;51.210;7.656;2023-03-03T12:02:24;149555.81;;;2.97;100.00
44926;BME280;30662;51.210;7.656;2023-03-03T12:05:04;149476.53;;;2.65;100.00
44926;BME280;30662;51.210;7.656;2023-03-03T12:07:47;149511.78;;;2.79;100.00
44926;BME280;30662;51.210;7.656;2023-03-03T12:10:40;149553.28;;;2.96;100.00
44926;BME280;30662;51.210;7.656;2023-03-03T12:15:56;149667.88;;;3.42;100.00
44926;BME280;30662;51.210;7.656;2023-03-03T12:27:25;149632.63;;;3.28;100.00
44926;BME280;30662;51.210;7.656;2023-03-03T12:35:54;149817.72;;;4.03;99.52
44926;BME280;30662;51.210;7.656;2023-03-03T12:41:17;149695.56;;;3.53;100.00
44926;BME280;30662;51.210;7.656;2023-03-03T12:46:28;149711.94;;;3.60;100.00
44926;BME280;30662;51.210;7.656;2023-03-03T12:48:58;149691.78;;;3.52;100.00
44926;BME280;30662;51.210;7.656;2023-03-03T12:51:58;149674.16;;;3.45;100.00
44926;BME280;30662;51.210;7.656;2023-03-03T12:54:37;149724.53;;;3.65;100.00
44926;BME280;30662;51.210;7.656;2023-03-03T13:05:31;150062.22;;;5.02;91.54
44926;BME280;30662;51.210;7.656;2023-03-03T13:13:15;150275.34;;;5.88;81.13
44926;BME280;30662;51.210;7.656;2023-03-03T13:31:53;150219.84;;;5.65;83.48
44926;BME280;30662;51.210;7.656;2023-03-03T13:37:05;150176.94;;;5.48;85.51
44926;BME280;30662;51.210;7.656;2023-03-03T13:39:37;150368.75;;;6.25;80.33
44926;BME280;30662;51.210;7.656;2023-03-03T13:44:41;150351.06;;;6.18;78.53
44926;BME280;30662;51.210;7.656;2023-03-03T13:53:40;150733.59;;;7.72;68.96
44926;BME280;30662;51.210;7.656;2023-03-03T14:02:07;150211.00;;;5.62;80.80
44926;BME280;30662;51.210;7.656;2023-03-03T14:07:27;150121.47;;;5.25;85.26
44926;BME280;30662;51.210;7.656;2023-03-03T14:12:57;149876.91;;;4.27;90.83
44926;BME280;30662;51.210;7.656;2023-03-03T14:15:29;149929.84;;;4.48;91.65
44926;BME280;30662;51.210;7.656;2023-03-03T14:20:36;150019.31;;;4.84;88.61
44926;BME280;30662;51.210;7.656;2023-03-03T14:23:22;149994.13;;;4.74;90.71
44926;BME280;30662;51.210;7.656;2023-03-03T14:28:16;150034.47;;;4.90;89.72
44926;BME280;30662;51.210;7.656;2023-03-03T14:30:44;149944.97;;;4.54;90.33
44926;BME280;30662;51.210;7.656;2023-03-03T14:40:43;149918.53;;;4.43;94.04
44926;BME280;30662;51.210;7.656;2023-03-03T14:43:37;149963.88;;;4.62;93.10
44926;BME280;30662;51.210;7.656;2023-03-03T14:48:56;149913.47;;;4.41;93.80
44926;BME280;30662;51.210;7.656;2023-03-03T14:51:25;149922.31;;;4.45;92.72
44926;BME280;30662;51.210;7.656;2023-03-03T14:53:54;149836.63;;;4.10;94.40
44926;BME280;30662;51.210;7.656;2023-03-03T14:59:16;149836.63;;;4.10;92.71
44926;BME280;30662;51.210;7.656;2023-03-03T15:01:43;149806.38;;;3.98;94.75
44926;BME280;30662;51.210;7.656;2023-03-03T15:04:24;149854.25;;;4.18;93.84
44926;BME280;30662;51.210;7.656;2023-03-03T15:06:52;149834.09;;;4.09;93.35
44926;BME280;30662;51.210;7.656;2023-03-03T15:09:38;149734.59;;;3.69;95.04
44926;BME280;30662;51.210;7.656;2023-03-03T15:12:20;149676.66;;;3.46;97.37
44926;BME280;30662;51.210;7.656;2023-03-03T15:14:53;149676.66;;;3.46;98.58
44926;BME280;30662;51.210;7.656;2023-03-03T15:17:33;149656.53;;;3.38;99.53
44926;BME280;30662;51.210;7.656;2023-03-03T15:20:14;149649.00;;;3.35;100.00
44926;BME280;30662;51.210;7.656;2023-03-03T15:22:51;149640.16;;;3.31;100.00
44926;BME280;30662;51.210;7.656;2023-03-03T15:25:28;149599.88;;;3.15;99.31
44926;BME280;30662;51.210;7.656;2023-03-03T15:30:54;149559.63;;;2.98;100.00
44926;BME280;30662;51.210;7.656;2023-03-03T15:36:22;149545.75;;;2.93;100.00
44926;BME280;30662;51.210;7.656;2023-03-03T15:49:39;149487.88;;;2.69;100.00
44926;BME280;30662;51.210;7.656;2023-03-03T16:03:00;149418.69;;;2.41;100.00
44926;BME280;30662;51.210;7.656;2023-03-03T16:05:34;149403.56;;;2.35;100.00
44926;BME280;30662;51.210;7.656;2023-03-03T16:08:18;149422.44;;;2.43;100.00
44926;BME280;30662;51.210;7.656;2023-03-03T16:10:58;149424.94;;;2.44;100.00
44926;BME280;30662;51.210;7.656;2023-03-03T16:25:06;149394.75;;;2.32;100.00
44926;BME280;30662;51.210;7.656;2023-03-03T16:32:47;149338.16;;;2.09;100.00
44926;BME280;30662;51.210;7.656;2023-03-03T16:35:30;149336.91;;;2.08;100.00
44926;BME280;30662;51.210;7.656;2023-03-03T16:38:02;149338.16;;;2.09;100.00
44926;BME280;30662;51.210;7.656;2023-03-03T16:40:37;149306.75;;;1.96;100.00
44926;BME280;30662;51.210;7.656;2023-03-03T16:46:10;149296.66;;;1.92;100.00
44926;BME280;30662;51.210;7.656;2023-03-03T16:51:44;149316.78;;;2.00;100.00
44926;BME280;30662;51.210;7.656;2023-03-03T16:54:19;149304.19;;;1.95;100.00
44926;BME280;30662;51.210;7.656;2023-03-03T17:00:20;149236.31;;;1.68;100.00
44926;BME280;30662;51.210;7.656;2023-03-03T17:05:39;149218.72;;;1.60;100.00
44926;BME280;30662;51.210;7.656;2023-03-03T17:11:04;149178.47;;;1.44;100.00
44926;BME280;30662;51.210;7.656;2023-03-03T17:13:46;149150.84;;;1.33;100.00
44926;BME280;30662;51.210;7.656;2023-03-03T17:21:44;149138.25;;;1.28;100.00
44926;BME280;30662;51.210;7.656;2023-03-03T17:32:20;149062.84;;;0.97;100.00
44926;BME280;30662;51.210;7.656;2023-03-03T17:35:17;149031.44;;;0.85;100.00
44926;BME280;30662;51.210;7.656;2023-03-03T17:40:46;149071.63;;;1.01;100.00
44926;BME280;30662;51.210;7.656;2023-03-03T17:43:42;149051.53;;;0.93;100.00
44926;BME280;30662;51.210;7.656;2023-03-03T17:46:31;149027.66;;;0.83;100.00